sensor_id;sensor_type;location;lat;lon;timestamp;pressure;altitude;pressure_sealevel;temperature;humidity
17254;BME280;32542;52.832;13.816;2023-01-29T00:01:54;102553.06;;;20.72;42.46
17254;BME280;32542;52.832;13.816;2023-01-29T00:04:57;102546.88;;;20.71;42.56
17254;BME280;32542;52.832;13.816;2023-01-29T00:08:18;102546.78;;;20.74;42.65
17254;BME280;32542;52.832;13.816;2023-01-29T00:11:21;102544.13;;;20.74;42.66
17254;BME280;32542;52.832;13.816;2023-01-29T00:14:25;102541.47;;;20.74;42.70
17254;BME280;32542;52.832;13.816;2023-01-29T00:17:29;102541.47;;;20.74;42.60
17254;BME280;32542;52.832;13.816;2023-01-29T00:20:32;102538.84;;;20.73;42.66
17254;BME280;32542;52.832;13.816;2023-01-29T00:23:36;102541.50;;;20.73;42.71
17254;BME280;32542;52.832;13.816;2023-01-29T00:26:39;102539.72;;;20.73;42.88
17254;BME280;32542;52.832;13.816;2023-01-29T00:29:43;102535.28;;;20.72;42.96
17254;BME280;32542;52.832;13.816;2023-01-29T00:33:03;102525.53;;;20.73;42.84
17254;BME280;32542;52.832;13.816;2023-01-29T00:36:09;102517.53;;;20.73;43.07
17254;BME280;32542;52.832;13.816;2023-01-29T00:39:13;102527.31;;;20.72;43.03
17254;BME280;32542;52.832;13.816;2023-01-29T00:42:16;102511.31;;;20.72;43.03
17254;BME280;32542;52.832;13.816;2023-01-29T00:45:37;102517.53;;;20.73;43.00
17254;BME280;32542;52.832;13.816;2023-01-29T00:48:40;102516.66;;;20.72;43.07
17254;BME280;32542;52.832;13.816;2023-01-29T00:51:43;102532.63;;;20.72;43.19
17254;BME280;32542;52.832;13.816;2023-01-29T00:55:09;102540.63;;;20.72;43.16
17254;BME280;32542;52.832;13.816;2023-01-29T00:58:12;102534.44;;;20.72;43.25
17254;BME280;32542;52.832;13.816;2023-01-29T01:01:16;102537.94;;;20.72;43.29
17254;BME280;32542;52.832;13.816;2023-01-29T01:04:39;102545.97;;;20.71;43.30
17254;BME280;32542;52.832;13.816;2023-01-29T01:07:41;102545.09;;;20.70;43.34
17254;BME280;32542;52.832;13.816;2023-01-29T01:10:45;102538.00;;;20.71;43.36
17254;BME280;32542;52.832;13.816;2023-01-29T01:13:47;102530.88;;;20.71;43.40
17254;BME280;32542;52.832;13.816;2023-01-29T01:16:53;102536.22;;;20.71;43.47
17254;BME280;32542;52.832;13.816;2023-01-29T01:19:56;102534.44;;;20.70;43.41
17254;BME280;32542;52.832;13.816;2023-01-29T01:22:59;102530.00;;;20.71;43.51
17254;BME280;32542;52.832;13.816;2023-01-29T01:26:07;102528.22;;;20.71;43.51
17254;BME280;32542;52.832;13.816;2023-01-29T01:29:11;102526.47;;;20.70;43.51
17254;BME280;32542;52.832;13.816;2023-01-29T01:32:14;102520.25;;;20.71;43.57
17254;BME280;32542;52.832;13.816;2023-01-29T01:35:17;102524.69;;;20.71;43.61
17254;BME280;32542;52.832;13.816;2023-01-29T01:38:20;102523.78;;;20.70;43.56
17254;BME280;32542;52.832;13.816;2023-01-29T01:41:25;102513.16;;;20.70;43.60
17254;BME280;32542;52.832;13.816;2023-01-29T01:44:50;102517.56;;;20.71;43.61
17254;BME280;32542;52.832;13.816;2023-01-29T01:47:57;102516.69;;;20.71;43.67
17254;BME280;32542;52.832;13.816;2023-01-29T01:51:03;102508.72;;;20.71;43.65
17254;BME280;32542;52.832;13.816;2023-01-29T01:54:09;102509.59;;;20.71;43.78
17254;BME280;32542;52.832;13.816;2023-01-29T01:57:17;102504.25;;;20.71;43.72
17254;BME280;32542;52.832;13.816;2023-01-29T02:00:26;102493.63;;;20.71;43.55
17254;BME280;32542;52.832;13.816;2023-01-29T02:03:30;102490.97;;;20.71;43.73
17254;BME280;32542;52.832;13.816;2023-01-29T02:06:53;102490.97;;;20.71;43.81
17254;BME280;32542;52.832;13.816;2023-01-29T02:10:15;102487.41;;;20.71;43.67
17254;BME280;32542;52.832;13.816;2023-01-29T02:13:20;102488.28;;;20.71;43.73
17254;BME280;32542;52.832;13.816;2023-01-29T02:16:23;102481.19;;;20.70;43.81
17254;BME280;32542;52.832;13.816;2023-01-29T02:19:35;102475.88;;;20.70;43.73
17254;BME280;32542;52.832;13.816;2023-01-29T02:22:54;102466.16;;;20.69;43.85
17254;BME280;32542;52.832;13.816;2023-01-29T02:26:20;102475.88;;;20.70;43.78
17254;BME280;32542;52.832;13.816;2023-01-29T02:29:33;102478.53;;;20.70;43.86
17254;BME280;32542;52.832;13.816;2023-01-29T02:32:40;102482.97;;;20.70;43.98
17254;BME280;32542;52.832;13.816;2023-01-29T02:35:58;102481.19;;;20.70;43.80
17254;BME280;32542;52.832;13.816;2023-01-29T02:39:13;102481.19;;;20.70;43.80
17254;BME280;32542;52.832;13.816;2023-01-29T02:42:23;102474.13;;;20.69;43.83
17254;BME280;32542;52.832;13.816;2023-01-29T02:45:33;102470.56;;;20.70;43.89
17254;BME280;32542;52.832;13.816;2023-01-29T02:48:41;102469.66;;;20.70;43.86
17254;BME280;32542;52.832;13.816;2023-01-29T02:51:48;102468.81;;;20.69;43.92
17254;BME280;32542;52.832;13.816;2023-01-29T02:54:57;102469.66;;;20.70;43.89
17254;BME280;32542;52.832;13.816;2023-01-29T02:58:08;102468.81;;;20.69;43.88
17254;BME280;32542;52.832;13.816;2023-01-29T03:01:17;102467.00;;;20.70;43.90
17254;BME280;32542;52.832;13.816;2023-01-29T03:04:28;102462.59;;;20.69;43.83
17254;BME280;32542;52.832;13.816;2023-01-29T03:07:34;102454.56;;;20.70;44.00
17254;BME280;32542;52.832;13.816;2023-01-29T03:11:02;102450.19;;;20.69;43.92
17254;BME280;32542;52.832;13.816;2023-01-29T03:14:09;102456.34;;;20.71;43.91
17254;BME280;32542;52.832;13.816;2023-01-29T03:17:17;102445.69;;;20.71;43.96
17254;BME280;32542;52.832;13.816;2023-01-29T03:20:23;102441.25;;;20.70;44.04
17254;BME280;32542;52.832;13.816;2023-01-29T03:23:32;102436.81;;;20.71;44.01
17254;BME280;32542;52.832;13.816;2023-01-29T03:26:55;102422.63;;;20.70;44.05
17254;BME280;32542;52.832;13.816;2023-01-29T03:30:19;102423.56;;;20.69;44.10
17254;BME280;32542;52.832;13.816;2023-01-29T03:34:00;102410.25;;;20.69;43.94
17254;BME280;32542;52.832;13.816;2023-01-29T03:37:10;102402.25;;;20.69;44.12
17254;BME280;32542;52.832;13.816;2023-01-29T03:40:15;102394.28;;;20.69;44.03
17254;BME280;32542;52.832;13.816;2023-01-29T03:43:25;102388.94;;;20.69;44.02
17254;BME280;32542;52.832;13.816;2023-01-29T03:46:37;102387.13;;;20.71;44.06
17254;BME280;32542;52.832;13.816;2023-01-29T03:49:55;102379.09;;;20.73;44.18
17254;BME280;32542;52.832;13.816;2023-01-29T03:53:05;102389.69;;;20.74;44.10
17254;BME280;32542;52.832;13.816;2023-01-29T03:56:26;102393.22;;;20.76;44.03
17254;BME280;32542;52.832;13.816;2023-01-29T03:59:39;102388.78;;;20.77;44.00
17254;BME280;32542;52.832;13.816;2023-01-29T04:03:19;102378.97;;;20.79;43.91
17254;BME280;32542;52.832;13.816;2023-01-29T04:06:26;102369.22;;;20.78;44.01
17254;BME280;32542;52.832;13.816;2023-01-29T04:09:40;102375.41;;;20.80;44.06
17254;BME280;32542;52.832;13.816;2023-01-29T04:12:46;102361.22;;;20.79;44.00
17254;BME280;32542;52.832;13.816;2023-01-29T04:15:55;102368.31;;;20.79;44.16
17254;BME280;32542;52.832;13.816;2023-01-29T04:19:20;102368.34;;;20.77;44.11
17254;BME280;32542;52.832;13.816;2023-01-29T04:22:29;102370.13;;;20.77;44.19
17254;BME280;32542;52.832;13.816;2023-01-29T04:25:41;102364.81;;;20.77;44.14
17254;BME280;32542;52.832;13.816;2023-01-29T04:28:55;102356.88;;;20.75;44.14
17254;BME280;32542;52.832;13.816;2023-01-29T04:32:07;102353.28;;;20.76;44.10
17254;BME280;32542;52.832;13.816;2023-01-29T04:35:21;102348.88;;;20.75;44.23
17254;BME280;32542;52.832;13.816;2023-01-29T04:38:36;102357.75;;;20.74;44.30
17254;BME280;32542;52.832;13.816;2023-01-29T04:41:49;102356.91;;;20.72;44.21
17254;BME280;32542;52.832;13.816;2023-01-29T04:44:58;102366.72;;;20.72;44.29
17254;BME280;32542;52.832;13.816;2023-01-29T04:48:09;102370.28;;;20.71;44.22
17254;BME280;32542;52.832;13.816;2023-01-29T04:51:23;102367.66;;;20.69;44.20
17254;BME280;32542;52.832;13.816;2023-01-29T04:54:35;102367.66;;;20.69;44.22
17254;BME280;32542;52.832;13.816;2023-01-29T04:57:47;102369.47;;;20.67;44.34
17254;BME280;32542;52.832;13.816;2023-01-29T05:00:53;102365.03;;;20.66;44.36
17254;BME280;32542;52.832;13.816;2023-01-29T05:03:57;102370.38;;;20.66;44.41
17254;BME280;32542;52.832;13.816;2023-01-29T05:07:03;102362.38;;;20.66;44.35
17254;BME280;32542;52.832;13.816;2023-01-29T05:10:12;102355.31;;;20.65;44.43
17254;BME280;32542;52.832;13.816;2023-01-29T05:13:18;102352.66;;;20.64;44.43
17254;BME280;32542;52.832;13.816;2023-01-29T05:16:25;102361.53;;;20.64;44.31
17254;BME280;32542;52.832;13.816;2023-01-29T05:19:29;102364.19;;;20.64;44.47
17254;BME280;32542;52.832;13.816;2023-01-29T05:22:36;102361.59;;;20.63;44.45
17254;BME280;32542;52.832;13.816;2023-01-29T05:25:42;102363.41;;;20.61;44.55
17254;BME280;32542;52.832;13.816;2023-01-29T05:28:46;102359.81;;;20.62;44.55
17254;BME280;32542;52.832;13.816;2023-01-29T05:31:48;102357.19;;;20.60;44.38
17254;BME280;32542;52.832;13.816;2023-01-29T05:34:51;102365.19;;;20.60;44.41
17254;BME280;32542;52.832;13.816;2023-01-29T05:37:54;102365.19;;;20.60;44.45
17254;BME280;32542;52.832;13.816;2023-01-29T05:40:58;102361.63;;;20.60;44.50
17254;BME280;32542;52.832;13.816;2023-01-29T05:44:01;102357.19;;;20.60;44.46
17254;BME280;32542;52.832;13.816;2023-01-29T05:47:04;102366.03;;;20.62;44.55
17254;BME280;32542;52.832;13.816;2023-01-29T05:50:08;102372.19;;;20.64;44.56
17254;BME280;32542;52.832;13.816;2023-01-29T05:53:11;102372.16;;;20.66;44.49
17254;BME280;32542;52.832;13.816;2023-01-29T05:56:15;102374.75;;;20.69;44.42
17254;BME280;32542;52.832;13.816;2023-01-29T05:59:18;102376.47;;;20.71;44.35
17254;BME280;32542;52.832;13.816;2023-01-29T06:02:21;102373.78;;;20.73;44.43
17254;BME280;32542;52.832;13.816;2023-01-29T06:05:24;102360.41;;;20.76;44.26
17254;BME280;32542;52.832;13.816;2023-01-29T06:08:27;102362.16;;;20.77;44.35
17254;BME280;32542;52.832;13.816;2023-01-29T06:11:31;102370.09;;;20.78;44.23
17254;BME280;32542;52.832;13.816;2023-01-29T06:14:34;102369.19;;;20.79;44.37
17254;BME280;32542;52.832;13.816;2023-01-29T06:17:37;102363.88;;;20.79;44.30
17254;BME280;32542;52.832;13.816;2023-01-29T06:20:40;102361.22;;;20.79;44.37
17254;BME280;32542;52.832;13.816;2023-01-29T06:23:43;102346.13;;;20.78;44.32
17254;BME280;32542;52.832;13.816;2023-01-29T06:26:47;102348.78;;;20.78;44.42
17254;BME280;32542;52.832;13.816;2023-01-29T06:29:50;102351.44;;;20.78;44.37
17254;BME280;32542;52.832;13.816;2023-01-29T06:32:54;102351.50;;;20.77;44.27
17254;BME280;32542;52.832;13.816;2023-01-29T06:35:58;102339.97;;;20.76;44.36
17254;BME280;32542;52.832;13.816;2023-01-29T06:39:01;102354.19;;;20.75;44.34
17254;BME280;32542;52.832;13.816;2023-01-29T06:42:06;102363.97;;;20.75;44.44
17254;BME280;32542;52.832;13.816;2023-01-29T06:45:09;102362.22;;;20.74;44.56
17254;BME280;32542;52.832;13.816;2023-01-29T06:48:12;102371.09;;;20.73;44.59
17254;BME280;32542;52.832;13.816;2023-01-29T06:51:15;102372.88;;;20.72;44.52
17254;BME280;32542;52.832;13.816;2023-01-29T06:54:18;102370.28;;;20.71;44.54
17254;BME280;32542;52.832;13.816;2023-01-29T06:57:23;102374.72;;;20.70;44.46
17254;BME280;32542;52.832;13.816;2023-01-29T07:00:26;102365.88;;;20.68;44.67
17254;BME280;32542;52.832;13.816;2023-01-29T07:03:31;102359.66;;;20.69;44.61
17254;BME280;32542;52.832;13.816;2023-01-29T07:06:34;102355.19;;;20.70;44.52
17254;BME280;32542;52.832;13.816;2023-01-29T07:09:38;102372.97;;;20.69;43.71
17254;BME280;32542;52.832;13.816;2023-01-29T07:12:43;102357.13;;;20.63;43.02
17254;BME280;32542;52.832;13.816;2023-01-29T07:15:46;102352.91;;;20.55;41.52
17254;BME280;32542;52.832;13.816;2023-01-29T07:18:49;102352.94;;;20.52;41.73
17254;BME280;32542;52.832;13.816;2023-01-29T07:21:52;102367.06;;;20.55;41.46
17254;BME280;32542;52.832;13.816;2023-01-29T07:24:54;102366.88;;;20.64;41.62
17254;BME280;32542;52.832;13.816;2023-01-29T07:28:00;102355.03;;;20.77;41.68
17254;BME280;32542;52.832;13.816;2023-01-29T07:31:04;102365.41;;;20.89;41.68
17254;BME280;32542;52.832;13.816;2023-01-29T07:34:07;102358.88;;;21.06;41.85
17254;BME280;32542;52.832;13.816;2023-01-29T07:37:10;102334.53;;;21.19;41.76
17254;BME280;32542;52.832;13.816;2023-01-29T07:40:13;102340.41;;;21.33;41.99
17254;BME280;32542;52.832;13.816;2023-01-29T07:43:18;102323.22;;;21.45;42.08
17254;BME280;32542;52.832;13.816;2023-01-29T07:46:21;102321.22;;;21.54;41.95
17254;BME280;32542;52.832;13.816;2023-01-29T07:49:24;102313.00;;;21.62;41.93
17254;BME280;32542;52.832;13.816;2023-01-29T07:52:28;102331.50;;;21.68;41.85
17254;BME280;32542;52.832;13.816;2023-01-29T07:55:32;102339.44;;;21.71;41.88
17254;BME280;32542;52.832;13.816;2023-01-29T07:58:36;102320.75;;;21.71;41.88
17254;BME280;32542;52.832;13.816;2023-01-29T08:01:39;102307.44;;;21.69;42.02
17254;BME280;32542;52.832;13.816;2023-01-29T08:04:42;102312.88;;;21.66;42.01
17254;BME280;32542;52.832;13.816;2023-01-29T08:07:45;102313.00;;;21.62;42.17
17254;BME280;32542;52.832;13.816;2023-01-29T08:11:06;102306.91;;;21.57;42.35
17254;BME280;32542;52.832;13.816;2023-01-29T08:14:10;102319.50;;;21.52;42.59
17254;BME280;32542;52.832;13.816;2023-01-29T08:17:13;102312.50;;;21.48;42.67
17254;BME280;32542;52.832;13.816;2023-01-29T08:20:16;102315.28;;;21.43;42.64
17254;BME280;32542;52.832;13.816;2023-01-29T08:23:19;102309.13;;;21.40;42.89
17254;BME280;32542;52.832;13.816;2023-01-29T08:26:22;102315.50;;;21.34;42.98
17254;BME280;32542;52.832;13.816;2023-01-29T08:29:29;102317.34;;;21.32;43.07
17254;BME280;32542;52.832;13.816;2023-01-29T08:32:32;102319.22;;;21.29;43.04
17254;BME280;32542;52.832;13.816;2023-01-29T08:35:35;102310.44;;;21.24;43.29
17254;BME280;32542;52.832;13.816;2023-01-29T08:38:38;102312.28;;;21.22;43.27
17254;BME280;32542;52.832;13.816;2023-01-29T08:41:41;102306.13;;;21.20;43.35
17254;BME280;32542;52.832;13.816;2023-01-29T08:44:45;102296.41;;;21.17;43.46
17254;BME280;32542;52.832;13.816;2023-01-29T08:47:48;102302.69;;;21.15;43.48
17254;BME280;32542;52.832;13.816;2023-01-29T08:50:51;102294.72;;;21.13;43.48
17254;BME280;32542;52.832;13.816;2023-01-29T08:53:54;102290.34;;;21.11;43.50
17254;BME280;32542;52.832;13.816;2023-01-29T08:56:57;102292.19;;;21.09;43.60
17254;BME280;32542;52.832;13.816;2023-01-29T09:00:02;102297.50;;;21.09;43.62
17254;BME280;32542;52.832;13.816;2023-01-29T09:03:05;102300.22;;;21.07;43.66
17254;BME280;32542;52.832;13.816;2023-01-29T09:06:10;102296.72;;;21.05;43.70
17254;BME280;32542;52.832;13.816;2023-01-29T09:09:13;102305.66;;;21.03;43.69
17254;BME280;32542;52.832;13.816;2023-01-29T09:12:16;102303.00;;;21.01;43.68
17254;BME280;32542;52.832;13.816;2023-01-29T09:15:21;102310.09;;;21.00;43.73
17254;BME280;32542;52.832;13.816;2023-01-29T09:18:24;102304.84;;;20.97;43.80
17254;BME280;32542;52.832;13.816;2023-01-29T09:21:26;102296.00;;;20.97;43.75
17254;BME280;32542;52.832;13.816;2023-01-29T09:24:29;102288.03;;;20.95;43.83
17254;BME280;32542;52.832;13.816;2023-01-29T09:27:33;102294.28;;;20.94;43.83
17254;BME280;32542;52.832;13.816;2023-01-29T09:30:37;102280.13;;;20.92;43.96
17254;BME280;32542;52.832;13.816;2023-01-29T09:33:40;102284.56;;;20.92;44.02
17254;BME280;32542;52.832;13.816;2023-01-29T09:36:43;102283.69;;;20.91;44.14
17254;BME280;32542;52.832;13.816;2023-01-29T09:39:46;102277.47;;;20.91;44.04
17254;BME280;32542;52.832;13.816;2023-01-29T09:42:54;102278.34;;;20.91;44.08
17254;BME280;32542;52.832;13.816;2023-01-29T09:46:03;102290.78;;;20.91;44.07
17254;BME280;32542;52.832;13.816;2023-01-29T09:49:11;102286.34;;;20.91;44.11
17254;BME280;32542;52.832;13.816;2023-01-29T09:52:21;102273.03;;;20.91;43.89
17254;BME280;32542;52.832;13.816;2023-01-29T09:55:26;102271.31;;;20.90;44.15
17254;BME280;32542;52.832;13.816;2023-01-29T09:58:33;102268.63;;;20.90;44.11
17254;BME280;32542;52.832;13.816;2023-01-29T10:01:45;102260.66;;;20.90;44.21
17254;BME280;32542;52.832;13.816;2023-01-29T10:05:12;102260.66;;;20.90;44.18
17254;BME280;32542;52.832;13.816;2023-01-29T10:08:39;102265.97;;;20.90;44.13
17254;BME280;32542;52.832;13.816;2023-01-29T10:11:53;102267.72;;;20.91;44.14
17254;BME280;32542;52.832;13.816;2023-01-29T10:15:12;102262.38;;;20.91;44.27
17254;BME280;32542;52.832;13.816;2023-01-29T10:18:36;102265.03;;;20.91;44.14
17254;BME280;32542;52.832;13.816;2023-01-29T10:21:51;102273.03;;;20.91;44.37
17254;BME280;32542;52.832;13.816;2023-01-29T10:25:02;102265.94;;;20.92;44.22
17254;BME280;32542;52.832;13.816;2023-01-29T10:28:14;102255.22;;;20.93;44.25
17254;BME280;32542;52.832;13.816;2023-01-29T10:31:21;102237.53;;;20.92;44.18
17254;BME280;32542;52.832;13.816;2023-01-29T10:34:30;102239.31;;;20.92;44.14
17254;BME280;32542;52.832;13.816;2023-01-29T10:37:37;102234.03;;;20.90;44.27
17254;BME280;32542;52.832;13.816;2023-01-29T10:40:45;102227.81;;;20.90;44.30
17254;BME280;32542;52.832;13.816;2023-01-29T10:44:00;102214.53;;;20.88;44.29
17254;BME280;32542;52.832;13.816;2023-01-29T10:47:16;102211.88;;;20.88;44.36
17254;BME280;32542;52.832;13.816;2023-01-29T10:50:35;102202.13;;;20.87;44.35
17254;BME280;32542;52.832;13.816;2023-01-29T10:53:51;102191.47;;;20.87;44.31
17254;BME280;32542;52.832;13.816;2023-01-29T10:57:05;102184.41;;;20.86;44.45
17254;BME280;32542;52.832;13.816;2023-01-29T11:00:15;102199.50;;;20.86;44.39
17254;BME280;32542;52.832;13.816;2023-01-29T11:03:22;102187.09;;;20.86;44.48
17254;BME280;32542;52.832;13.816;2023-01-29T11:06:32;102189.75;;;20.86;44.45
17254;BME280;32542;52.832;13.816;2023-01-29T11:09:38;102195.91;;;20.87;44.50
17254;BME280;32542;52.832;13.816;2023-01-29T11:12:44;102177.34;;;20.85;44.37
17254;BME280;32542;52.832;13.816;2023-01-29T11:15:50;102167.56;;;20.86;44.48
17254;BME280;32542;52.832;13.816;2023-01-29T11:18:56;102162.25;;;20.86;44.49
17254;BME280;32542;52.832;13.816;2023-01-29T11:22:01;102164.06;;;20.84;44.45
17254;BME280;32542;52.832;13.816;2023-01-29T11:25:09;102156.97;;;20.83;44.47
17254;BME280;32542;52.832;13.816;2023-01-29T11:28:34;102160.53;;;20.83;44.38
17254;BME280;32542;52.832;13.816;2023-01-29T11:31:37;102156.09;;;20.84;44.45
17254;BME280;32542;52.832;13.816;2023-01-29T11:35:01;102157.84;;;20.83;44.37
17254;BME280;32542;52.832;13.816;2023-01-29T11:38:18;102157.84;;;20.83;44.54
17254;BME280;32542;52.832;13.816;2023-01-29T11:41:21;102148.16;;;20.82;44.58
17254;BME280;32542;52.832;13.816;2023-01-29T11:44:30;102146.31;;;20.83;44.57
17254;BME280;32542;52.832;13.816;2023-01-29T11:47:34;102147.22;;;20.83;44.61
17254;BME280;32542;52.832;13.816;2023-01-29T11:50:37;102134.78;;;20.84;44.62
17254;BME280;32542;52.832;13.816;2023-01-29T11:53:43;102122.34;;;20.84;44.56
17254;BME280;32542;52.832;13.816;2023-01-29T11:56:48;102112.53;;;20.85;44.57
17254;BME280;32542;52.832;13.816;2023-01-29T11:59:54;102108.16;;;20.84;44.53
17254;BME280;32542;52.832;13.816;2023-01-29T12:03:03;102095.72;;;20.84;44.55
17254;BME280;32542;52.832;13.816;2023-01-29T12:06:15;102101.06;;;20.84;44.59
17254;BME280;32542;52.832;13.816;2023-01-29T12:09:22;102101.91;;;20.85;44.56
17254;BME280;32542;52.832;13.816;2023-01-29T12:12:38;102089.50;;;20.84;44.53
17254;BME280;32542;52.832;13.816;2023-01-29T12:15:43;102077.97;;;20.83;44.54
17254;BME280;32542;52.832;13.816;2023-01-29T12:18:50;102081.59;;;20.82;44.61
17254;BME280;32542;52.832;13.816;2023-01-29T12:21:58;102077.09;;;20.83;44.56
17254;BME280;32542;52.832;13.816;2023-01-29T12:25:11;102072.66;;;20.83;44.66
17254;BME280;32542;52.832;13.816;2023-01-29T12:28:22;102055.81;;;20.83;44.69
17254;BME280;32542;52.832;13.816;2023-01-29T12:31:35;102062.00;;;20.83;44.66
17254;BME280;32542;52.832;13.816;2023-01-29T12:34:44;102070.88;;;20.84;44.61
17254;BME280;32542;52.832;13.816;2023-01-29T12:37:53;102061.09;;;20.84;44.55
17254;BME280;32542;52.832;13.816;2023-01-29T12:41:04;102064.63;;;20.85;44.71
17254;BME280;32542;52.832;13.816;2023-01-29T12:44:13;102069.09;;;20.84;44.59
17254;BME280;32542;52.832;13.816;2023-01-29T12:47:23;102057.56;;;20.84;44.68
17254;BME280;32542;52.832;13.816;2023-01-29T12:50:29;102062.00;;;20.83;44.59
17254;BME280;32542;52.832;13.816;2023-01-29T12:53:37;102066.44;;;20.83;44.61
17254;BME280;32542;52.832;13.816;2023-01-29T12:56:46;102070.94;;;20.82;44.79
17254;BME280;32542;52.832;13.816;2023-01-29T12:59:53;102070.03;;;20.82;44.62
17254;BME280;32542;52.832;13.816;2023-01-29T13:03:01;102062.94;;;20.82;44.64
17254;BME280;32542;52.832;13.816;2023-01-29T13:06:07;102053.25;;;20.80;44.82
17254;BME280;32542;52.832;13.816;2023-01-29T13:09:16;102053.19;;;20.81;44.83
17254;BME280;32542;52.832;13.816;2023-01-29T13:12:23;102048.75;;;20.82;44.78
17254;BME280;32542;52.832;13.816;2023-01-29T13:15:29;102044.31;;;20.82;44.77
17254;BME280;32542;52.832;13.816;2023-01-29T13:18:43;102033.66;;;20.82;44.73
17254;BME280;32542;52.832;13.816;2023-01-29T13:21:49;102033.66;;;20.82;44.71
17254;BME280;32542;52.832;13.816;2023-01-29T13:24:54;102018.63;;;20.80;44.81
17254;BME280;32542;52.832;13.816;2023-01-29T13:28:15;102024.81;;;20.80;44.79
17254;BME280;32542;52.832;13.816;2023-01-29T13:31:27;102019.47;;;20.80;44.73
17254;BME280;32542;52.832;13.816;2023-01-29T13:34:34;102024.81;;;20.80;44.69
17254;BME280;32542;52.832;13.816;2023-01-29T13:37:41;102021.31;;;20.78;44.84
17254;BME280;32542;52.832;13.816;2023-01-29T13:40:49;102022.19;;;20.79;44.86
17254;BME280;32542;52.832;13.816;2023-01-29T13:43:54;102008.00;;;20.78;44.75
17254;BME280;32542;52.832;13.816;2023-01-29T13:46:59;102012.47;;;20.78;44.87
17254;BME280;32542;52.832;13.816;2023-01-29T13:50:04;102003.63;;;20.77;44.76
17254;BME280;32542;52.832;13.816;2023-01-29T13:53:20;102000.91;;;20.79;44.82
17254;BME280;32542;52.832;13.816;2023-01-29T13:56:28;102000.91;;;20.79;44.91
17254;BME280;32542;52.832;13.816;2023-01-29T13:59:49;102001.72;;;20.81;44.90
17254;BME280;32542;52.832;13.816;2023-01-29T14:06:50;101992.84;;;20.80;44.76
17254;BME280;32542;52.832;13.816;2023-01-29T14:10:07;101982.22;;;20.80;44.83
17254;BME280;32542;52.832;13.816;2023-01-29T14:13:28;101974.28;;;20.79;44.69
17254;BME280;32542;52.832;13.816;2023-01-29T14:16:37;101968.91;;;20.80;44.71
17254;BME280;32542;52.832;13.816;2023-01-29T14:19:46;101971.56;;;20.80;44.79
17254;BME280;32542;52.832;13.816;2023-01-29T14:22:53;101971.56;;;20.80;44.71
17254;BME280;32542;52.832;13.816;2023-01-29T14:25:58;101967.16;;;20.79;44.83
17254;BME280;32542;52.832;13.816;2023-01-29T14:29:05;101961.84;;;20.79;44.91
17254;BME280;32542;52.832;13.816;2023-01-29T14:32:14;101968.00;;;20.81;44.51
17254;BME280;32542;52.832;13.816;2023-01-29T14:35:23;101965.34;;;20.81;44.82
17254;BME280;32542;52.832;13.816;2023-01-29T14:38:27;101963.56;;;20.82;44.80
17254;BME280;32542;52.832;13.816;2023-01-29T14:41:32;101961.78;;;20.82;44.79
17254;BME280;32542;52.832;13.816;2023-01-29T14:44:47;101949.34;;;20.81;44.80
17254;BME280;32542;52.832;13.816;2023-01-29T14:48:03;101955.59;;;20.80;44.87
17254;BME280;32542;52.832;13.816;2023-01-29T14:51:19;101951.16;;;20.81;44.77
17254;BME280;32542;52.832;13.816;2023-01-29T14:54:26;101950.25;;;20.80;44.79
17254;BME280;32542;52.832;13.816;2023-01-29T14:57:31;101940.53;;;20.79;44.82
17254;BME280;32542;52.832;13.816;2023-01-29T15:00:36;101940.53;;;20.79;44.85
17254;BME280;32542;52.832;13.816;2023-01-29T15:03:43;101937.88;;;20.79;44.90
17254;BME280;32542;52.832;13.816;2023-01-29T15:06:51;101936.13;;;20.78;44.84
17254;BME280;32542;52.832;13.816;2023-01-29T15:09:59;101932.63;;;20.78;44.96
17254;BME280;32542;52.832;13.816;2023-01-29T15:13:31;101926.41;;;20.77;44.83
17254;BME280;32542;52.832;13.816;2023-01-29T15:16:45;101918.44;;;20.77;44.86
17254;BME280;32542;52.832;13.816;2023-01-29T15:19:51;101920.16;;;20.78;44.96
17254;BME280;32542;52.832;13.816;2023-01-29T15:22:54;101909.50;;;20.78;45.00
17254;BME280;32542;52.832;13.816;2023-01-29T15:25:59;101908.66;;;20.78;44.91
17254;BME280;32542;52.832;13.816;2023-01-29T15:29:03;101905.13;;;20.77;44.81
17254;BME280;32542;52.832;13.816;2023-01-29T15:32:12;101902.44;;;20.77;44.92
17254;BME280;32542;52.832;13.816;2023-01-29T15:35:26;101903.34;;;20.78;44.88
17254;BME280;32542;52.832;13.816;2023-01-29T15:38:30;101895.38;;;20.76;44.84
17254;BME280;32542;52.832;13.816;2023-01-29T15:41:33;101900.69;;;20.76;44.91
17254;BME280;32542;52.832;13.816;2023-01-29T15:44:35;101893.63;;;20.75;44.90
17254;BME280;32542;52.832;13.816;2023-01-29T15:47:38;101891.84;;;20.76;44.96
17254;BME280;32542;52.832;13.816;2023-01-29T15:50:44;101887.44;;;20.75;44.82
17254;BME280;32542;52.832;13.816;2023-01-29T15:53:48;101880.34;;;20.75;45.01
17254;BME280;32542;52.832;13.816;2023-01-29T15:56:53;101886.53;;;20.76;45.08
17254;BME280;32542;52.832;13.816;2023-01-29T15:59:57;101883.88;;;20.76;45.00
17254;BME280;32542;52.832;13.816;2023-01-29T16:03:12;101882.94;;;20.77;45.00
17254;BME280;32542;52.832;13.816;2023-01-29T16:06:17;101869.63;;;20.77;44.92
17254;BME280;32542;52.832;13.816;2023-01-29T16:09:21;101875.84;;;20.77;44.91
17254;BME280;32542;52.832;13.816;2023-01-29T16:12:25;101873.16;;;20.77;44.85
17254;BME280;32542;52.832;13.816;2023-01-29T16:15:31;101881.16;;;20.77;44.90